createdAt,value
2023-01-30T00:02:42.050Z,22.47
2023-01-30T00:12:46.672Z,25.43
2023-01-30T00:23:00.538Z,24.27
2023-01-30T00:33:05.616Z,25.40
2023-01-30T00:43:27.473Z,24.73
2023-01-30T00:53:32.102Z,23.83
2023-01-30T01:03:35.369Z,24.87
2023-01-30T01:13:39.911Z,25.43
2023-01-30T01:23:43.229Z,22.87
2023-01-30T01:33:47.876Z,24.10
2023-01-30T01:44:06.014Z,25.17
2023-01-30T01:54:14.768Z,26.63
2023-01-30T02:04:38.861Z,24.47
2023-01-30T02:14:44.797Z,24.83
2023-01-30T02:25:20.559Z,24.87
2023-01-30T02:35:30.875Z,23.80
2023-01-30T02:45:43.153Z,22.40
2023-01-30T02:55:50.294Z,21.20
2023-01-30T03:06:24.343Z,24.20
2023-01-30T03:16:34.311Z,24.67
2023-01-30T03:26:41.853Z,22.33
2023-01-30T03:36:48.272Z,23.93
2023-01-30T03:46:52.359Z,20.53
2023-01-30T03:56:57.582Z,23.90
2023-01-30T04:07:01.235Z,21.93
2023-01-30T04:17:06.747Z,21.20
2023-01-30T04:27:39.238Z,23.83
2023-01-30T04:37:55.929Z,22.40
2023-01-30T04:47:59.210Z,24.37
2023-01-30T04:58:04.197Z,25.57
2023-01-30T05:08:07.737Z,23.53
2023-01-30T05:18:12.268Z,22.60
2023-01-30T05:28:15.445Z,23.40
2023-01-30T05:38:20.030Z,25.47
2023-01-30T05:48:23.996Z,21.47
2023-01-30T05:58:29.219Z,23.93
2023-01-30T06:08:33.211Z,24.27
2023-01-30T06:18:37.809Z,23.33
2023-01-30T06:28:40.969Z,26.13
2023-01-30T06:38:45.484Z,25.47
2023-01-30T06:48:48.914Z,26.37
2023-01-30T06:58:53.470Z,22.23
2023-01-30T07:08:58.447Z,23.07
2023-01-30T07:19:03.020Z,22.67
2023-01-30T07:29:06.193Z,25.27
2023-01-30T07:39:10.915Z,25.20
2023-01-30T07:49:14.103Z,26.20
2023-01-30T07:59:18.824Z,23.40
2023-01-30T08:09:22.049Z,26.07
2023-01-30T08:19:26.590Z,23.93
2023-01-30T08:29:29.848Z,24.57
2023-01-30T08:39:36.359Z,22.90
2023-01-30T08:49:40.315Z,25.63
2023-01-30T08:59:44.867Z,25.93
2023-01-30T09:09:48.599Z,24.43
2023-01-30T09:19:53.258Z,23.80
2023-01-30T09:29:56.500Z,26.80
2023-01-30T09:40:00.987Z,22.77
2023-01-30T09:50:18.088Z,26.87
2023-01-30T10:00:27.645Z,24.83
2023-01-30T10:10:45.373Z,25.57
2023-01-30T10:20:59.467Z,26.03
2023-01-30T10:31:07.971Z,25.70
2023-01-30T10:41:21.288Z,26.43
2023-01-30T10:51:38.895Z,25.00
2023-01-30T11:01:49.124Z,24.17
2023-01-30T11:11:54.175Z,26.47
2023-01-30T11:22:06.023Z,26.90
2023-01-30T11:32:16.102Z,24.00
2023-01-30T11:42:25.268Z,28.10
2023-01-30T11:52:31.186Z,24.27
2023-01-30T12:02:39.333Z,24.83
2023-01-30T12:12:48.092Z,21.17
2023-01-30T12:23:04.691Z,17.90
2023-01-30T12:33:15.442Z,22.43
2023-01-30T12:43:40.080Z,19.93
2023-01-30T12:53:56.103Z,19.57
2023-01-30T13:04:10.237Z,21.80
2023-01-30T13:14:26.712Z,21.60
2023-01-30T13:24:44.491Z,22.53
2023-01-30T13:34:49.489Z,20.87
2023-01-30T13:44:55.476Z,22.60
2023-01-30T13:55:04.519Z,18.00
2023-01-30T14:05:10.710Z,16.43
2023-01-30T14:15:27.295Z,17.80
2023-01-30T14:25:45.273Z,12.00
2023-01-30T14:35:49.396Z,14.90
2023-01-30T14:45:56.223Z,8.10
2023-01-30T14:56:05.039Z,14.50
2023-01-30T15:06:09.688Z,17.83
2023-01-30T15:16:47.346Z,16.63
2023-01-30T15:26:58.455Z,17.63
2023-01-30T15:37:01.858Z,16.23
2023-01-30T15:47:38.297Z,16.60
2023-01-30T15:57:43.673Z,15.87
2023-01-30T16:07:50.232Z,13.80
2023-01-30T16:18:01.109Z,14.70
2023-01-30T16:28:06.464Z,14.07
2023-01-30T16:38:32.031Z,14.30
2023-01-30T16:48:37.836Z,16.87
2023-01-30T16:58:41.291Z,13.57
2023-01-30T17:08:52.240Z,13.80
2023-01-30T17:18:58.056Z,12.70
2023-01-30T17:29:02.648Z,14.60
2023-01-30T17:39:12.530Z,14.20
2023-01-30T17:49:20.996Z,13.17
2023-01-30T17:59:24.186Z,22.80
2023-01-30T18:09:29.865Z,21.20
2023-01-30T18:19:33.099Z,12.43
2023-01-30T18:29:37.662Z,15.63
2023-01-30T18:39:41.185Z,16.43
2023-01-30T18:49:46.159Z,13.83
2023-01-30T18:59:49.300Z,17.80
2023-01-30T19:09:53.917Z,14.50
2023-01-30T19:19:59.949Z,14.80
2023-01-30T19:30:05.680Z,14.87
2023-01-30T19:40:10.967Z,13.60
2023-01-30T19:50:15.711Z,16.17
2023-01-30T20:00:20.262Z,15.33
2023-01-30T20:10:24.958Z,17.93
2023-01-30T20:20:30.455Z,17.87
2023-01-30T20:30:35.910Z,14.17
2023-01-30T20:40:39.794Z,11.87
2023-01-30T20:50:44.328Z,12.43
2023-01-30T21:00:47.567Z,11.07
2023-01-30T21:10:52.163Z,12.37
2023-01-30T21:20:55.351Z,11.37
2023-01-30T21:31:05.112Z,10.33
2023-01-30T21:41:29.587Z,12.63
2023-01-30T21:51:34.486Z,13.03
2023-01-30T22:01:38.891Z,14.87
2023-01-30T22:11:43.671Z,14.60
2023-01-30T22:21:46.898Z,12.67
2023-01-30T22:31:51.678Z,12.83
2023-01-30T22:41:55.057Z,12.10
2023-01-30T22:52:01.618Z,13.70
2023-01-30T23:02:05.061Z,11.47
2023-01-30T23:12:27.187Z,14.10
2023-01-30T23:22:30.433Z,12.93
2023-01-30T23:32:35.558Z,10.67
2023-01-30T23:42:38.844Z,11.77
2023-01-30T23:52:44.902Z,11.37
